Time;durP1;ratioP1;P1;durP2;ratioP2;P2;SDS_P1;SDS_P2;PMS_P1;PMS_P2;Temp;Humidity;BMP_temperature;BMP_pressure;BME280_temperature;BME280_humidity;BME280_pressure;Samples;Min_cycle;Max_cycle;Signal;HPM_P1;HPM_P2
2022/05/21 00:01:16;;;;;;;11.63;8.10;;;;;;;12.01;84.53;101896.72;5216652;28;20053;-72
2022/05/21 00:03:47;;;;;;;8.13;6.27;;;;;;;12.06;83.99;101883.41;5230018;28;20111;-71
2022/05/21 00:06:19;;;;;;;10.93;6.87;;;;;;;12.11;83.75;101884.03;5219920;28;20052;-71
2022/05/21 00:08:51;;;;;;;7.80;7.00;;;;;;;12.00;84.38;101884.53;5222826;28;20036;-71
2022/05/21 00:11:22;;;;;;;12.33;6.83;;;;;;;12.06;84.46;101891.28;5227105;28;20121;-71
2022/05/21 00:13:56;;;;;;;8.87;6.60;;;;;;;12.10;84.10;101891.06;5232330;28;20025;-72
2022/05/21 00:16:28;;;;;;;10.88;5.93;;;;;;;12.01;84.29;101883.59;5231114;28;20030;-71
2022/05/21 00:18:59;;;;;;;11.53;6.73;;;;;;;12.01;84.70;101894.09;5218542;28;20064;-72
2022/05/21 00:21:30;;;;;;;8.83;5.53;;;;;;;12.06;84.31;101894.72;5224948;28;20060;-71
2022/05/21 00:24:02;;;;;;;7.50;5.27;;;;;;;11.96;84.20;101888.22;5226104;28;20052;-72
2022/05/21 00:26:34;;;;;;;10.27;5.20;;;;;;;11.94;84.97;101893.56;5214472;28;20030;-71
2022/05/21 00:29:05;;;;;;;8.07;5.10;;;;;;;11.93;84.51;101888.38;5213522;28;20033;-72
2022/05/21 00:31:36;;;;;;;9.10;5.40;;;;;;;11.86;85.01;101893.94;5211646;28;20377;-71
2022/05/21 00:34:08;;;;;;;9.47;5.30;;;;;;;11.79;85.40;101887.28;5222591;28;20671;-71
2022/05/21 00:36:39;;;;;;;6.17;4.87;;;;;;;11.86;85.32;101895.72;5222761;28;20025;-71
2022/05/21 00:39:10;;;;;;;7.83;4.77;;;;;;;11.82;85.31;101889.75;5231896;28;20033;-72
2022/05/21 00:41:42;;;;;;;7.90;5.47;;;;;;;11.84;85.52;101903.66;5227270;28;20124;-71
2022/05/21 00:44:14;;;;;;;8.23;5.03;;;;;;;11.77;85.42;101894.38;5210305;28;20030;-71
2022/05/21 00:46:47;;;;;;;9.27;4.53;;;;;;;11.85;85.09;101900.09;5217645;28;20033;-71
2022/05/21 00:49:33;;;;;;;6.30;4.57;;;;;;;11.82;85.09;101897.63;5217641;28;20029;-71
2022/05/21 00:52:17;;;;;;;9.03;4.80;;;;;;;11.82;85.74;101902.88;5221617;28;20436;-71
2022/05/21 00:54:52;;;;;;;8.03;3.87;;;;;;;11.81;85.39;101898.56;5219166;28;20026;-71
2022/05/21 00:57:28;;;;;;;7.57;4.00;;;;;;;11.93;85.22;101898.88;5223926;28;20312;-71
2022/05/21 01:00:11;;;;;;;11.30;4.50;;;;;;;11.90;85.77;101901.66;5213478;28;20366;-71
2022/05/21 01:02:49;;;;;;;8.00;4.27;;;;;;;11.90;85.29;101904.28;5226028;28;20084;-71
2022/05/21 01:05:25;;;;;;;6.10;4.00;;;;;;;11.89;85.77;101903.44;5210411;28;20061;-71
2022/05/21 01:07:59;;;;;;;7.37;3.70;;;;;;;11.91;85.49;101900.72;5221976;22;20048;-71
2022/05/21 01:10:36;;;;;;;8.13;3.17;;;;;;;11.90;85.32;101899.03;5214091;28;20037;-71
2022/05/21 01:13:18;;;;;;;11.90;3.80;;;;;;;11.86;85.93;101895.72;5201508;28;20033;-71
2022/05/21 01:15:53;;;;;;;7.60;3.97;;;;;;;11.87;85.66;101897.41;5211157;28;20030;-72
2022/05/21 01:18:24;;;;;;;7.93;3.67;;;;;;;11.93;85.25;101898.88;5204182;28;20484;-71
2022/05/21 01:20:58;;;;;;;7.73;3.47;;;;;;;11.97;85.17;101898.66;5194205;28;20037;-72
2022/05/21 01:23:30;;;;;;;7.35;3.78;;;;;;;11.91;85.48;101890.22;5205044;28;20618;-71
2022/05/21 01:26:04;;;;;;;6.43;3.13;;;;;;;12.01;85.58;101888.03;5214542;28;20018;-71
2022/05/21 01:28:37;;;;;;;11.00;3.85;;;;;;;11.95;85.46;101897.91;5198840;28;20023;-71
2022/05/21 01:31:08;;;;;;;11.57;3.07;;;;;;;11.97;85.64;101885.53;5192221;28;20030;-71
2022/05/21 01:33:44;;;;;;;7.80;3.43;;;;;;;12.06;85.82;101888.66;5199606;28;20037;-72
2022/05/21 01:36:16;;;;;;;7.10;3.60;;;;;;;11.97;85.29;101889.94;5199221;28;20030;-71
2022/05/21 01:38:49;;;;;;;11.90;3.47;;;;;;;12.04;85.36;101888.72;5210536;28;20041;-71
2022/05/21 01:41:20;;;;;;;6.37;2.93;;;;;;;12.00;85.64;101888.94;5193334;28;20084;-72
2022/05/21 01:46:41;;;;;;;7.27;2.97;;;;;;;11.86;85.78;101878.19;5191332;28;20038;-71
2022/05/21 01:49:13;;;;;;;8.73;3.67;;;;;;;11.96;85.52;101885.59;5204615;28;20030;-71
2022/05/21 01:51:44;;;;;;;8.70;3.77;;;;;;;11.96;85.93;101878.59;5207151;28;20030;-72
2022/05/21 01:54:15;;;;;;;9.83;3.53;;;;;;;12.02;86.28;101887.94;5202719;28;20415;-71
2022/05/21 01:56:47;;;;;;;11.90;3.17;;;;;;;11.88;86.89;101883.38;5209697;28;20506;-72
2022/05/21 01:59:18;;;;;;;9.47;3.47;;;;;;;12.00;86.20;101891.56;5209129;28;20120;-72
2022/05/21 02:01:50;;;;;;;6.63;3.30;;;;;;;11.96;86.27;101880.34;5205489;28;20519;-71
2022/05/21 02:04:22;;;;;;;9.53;3.80;;;;;;;12.00;86.49;101883.69;5210726;28;20029;-71
2022/05/21 02:06:54;;;;;;;10.17;3.73;;;;;;;12.01;85.92;101886.22;5207729;28;20481;-71
2022/05/21 02:09:25;;;;;;;9.97;3.90;;;;;;;12.03;85.98;101881.75;5207308;28;20100;-72
2022/05/21 02:11:56;;;;;;;11.03;4.57;;;;;;;12.03;86.22;101891.41;5201446;28;20053;-71
2022/05/21 02:14:28;;;;;;;10.47;3.67;;;;;;;12.02;86.71;101898.44;5205576;28;20034;-71
2022/05/21 02:16:59;;;;;;;8.53;4.30;;;;;;;12.02;86.11;101898.44;5210804;28;20058;-71
2022/05/21 02:19:30;;;;;;;13.00;4.33;;;;;;;12.04;86.33;101896.59;5210757;28;20034;-72
2022/05/21 02:22:02;;;;;;;12.70;3.70;;;;;;;12.04;86.56;101904.47;5198268;28;20084;-71
2022/05/21 02:24:33;;;;;;;8.10;3.90;;;;;;;12.02;86.94;101905.47;5195274;28;20029;-71
2022/05/21 02:27:08;;;;;;;9.87;3.27;;;;;;;12.15;85.35;101895.25;5195070;28;20030;-71
2022/05/21 02:29:40;;;;;;;10.37;3.53;;;;;;;12.08;86.63;101895.50;5199081;28;20030;-72
2022/05/21 02:32:14;;;;;;;9.90;2.83;;;;;;;12.04;86.43;101901.84;5199958;28;21084;-71
2022/05/21 02:34:46;;;;;;;10.75;3.50;;;;;;;12.07;85.92;101891.19;5195138;28;20519;-71
2022/05/21 02:40:08;;;;;;;8.20;3.87;;;;;;;12.07;86.87;101883.31;5202509;28;20136;-71
2022/05/21 02:42:48;;;;;;;9.27;3.50;;;;;;;12.07;86.33;101900.84;5203105;28;20735;-71
2022/05/21 02:45:26;;;;;;;12.77;3.73;;;;;;;12.08;86.47;101887.63;5202890;28;20477;-72
2022/05/21 02:47:57;;;;;;;9.23;4.23;;;;;;;11.97;86.84;101880.28;5193624;28;20042;-71
2022/05/21 02:50:35;;;;;;;10.87;3.83;;;;;;;12.02;87.28;101893.19;5203444;28;20100;-72
2022/05/21 02:53:13;;;;;;;12.57;4.07;;;;;;;12.01;86.80;101895.91;5203718;28;20558;-71
2022/05/21 02:55:46;;;;;;;10.53;3.80;;;;;;;12.04;86.94;101901.00;5192342;28;20369;-71
2022/05/21 02:58:17;;;;;;;12.63;4.80;;;;;;;11.99;86.71;101888.06;5191939;28;20030;-71
2022/05/21 03:00:49;;;;;;;13.50;3.77;;;;;;;12.03;86.72;101892.25;5192917;28;20538;-72
2022/05/21 03:03:20;;;;;;;11.57;4.10;;;;;;;11.99;87.31;101901.19;5200242;28;20755;-71
2022/05/21 03:05:51;;;;;;;8.60;4.77;;;;;;;12.02;86.81;101903.69;5193918;28;20034;-71
2022/05/21 03:11:12;;;;;;;12.33;3.57;;;;;;;12.02;87.10;101895.81;5192133;28;20492;-71
2022/05/21 03:13:44;;;;;;;11.17;3.70;;;;;;;12.05;87.06;101902.69;5207478;28;20094;-71
2022/05/21 03:16:15;;;;;;;9.67;3.77;;;;;;;12.01;87.29;101901.16;5209987;28;20463;-71
2022/05/21 03:18:46;;;;;;;12.70;5.00;;;;;;;12.04;87.39;101901.00;5194813;28;20042;-72
2022/05/21 03:21:18;;;;;;;15.40;4.77;;;;;;;12.02;87.32;101900.22;5194982;28;20451;-71
2022/05/21 03:23:49;;;;;;;16.47;4.33;;;;;;;12.01;87.79;101895.91;5203365;28;20473;-71
2022/05/21 03:26:20;;;;;;;12.87;4.40;;;;;;;11.88;87.55;101872.00;5202715;28;20026;-72
2022/05/21 03:28:52;;;;;;;11.50;4.40;;;;;;;11.97;88.22;101896.03;5211636;28;20106;-71
2022/05/21 03:31:24;;;;;;;13.93;5.20;;;;;;;11.95;88.20;101892.66;5199969;28;20033;-71
2022/05/21 03:33:55;;;;;;;13.37;4.90;;;;;;;12.00;87.50;101892.41;5193198;28;20018;-71
2022/05/21 03:36:27;;;;;;;12.33;4.60;;;;;;;11.92;87.46;101876.19;5199254;28;20026;-71
2022/05/21 03:38:59;;;;;;;9.80;4.73;;;;;;;12.00;87.62;101888.94;5203848;28;20061;-71
2022/05/21 03:41:31;;;;;;;14.37;5.30;;;;;;;12.01;88.25;101903.78;5212719;28;20041;-71
2022/05/21 03:44:03;;;;;;;13.47;4.40;;;;;;;11.93;88.47;101891.00;5195771;28;20022;-72
2022/05/21 03:46:38;;;;;;;14.77;5.07;;;;;;;11.97;87.69;101901.28;5203938;28;20523;-71
2022/05/21 03:49:09;;;;;;;14.53;4.93;;;;;;;11.96;88.32;101903.97;5198556;28;20518;-71
2022/05/21 03:51:40;;;;;;;11.83;4.83;;;;;;;11.98;87.93;101903.00;5198349;28;20110;-71
2022/05/21 03:54:12;;;;;;;14.40;4.50;;;;;;;11.90;88.25;101904.28;5208581;28;20033;-72
2022/05/21 03:56:43;;;;;;;15.93;4.93;;;;;;;11.94;88.36;101905.81;5195192;28;20035;-72
2022/05/21 03:59:14;;;;;;;17.73;5.03;;;;;;;11.95;88.37;101912.78;5191740;28;20042;-71
2022/05/21 04:01:45;;;;;;;14.07;5.73;;;;;;;11.91;89.16;101914.72;5199527;28;20606;-72
2022/05/21 04:04:17;;;;;;;11.27;3.97;;;;;;;11.97;88.83;101911.78;5203765;28;20508;-71
2022/05/21 04:06:48;;;;;;;19.30;5.13;;;;;;;11.94;89.18;101911.94;5190032;28;20097;-71
2022/05/21 04:09:20;;;;;;;13.03;5.53;;;;;;;11.94;88.76;101911.94;5191074;28;20042;-71
2022/05/21 04:11:51;;;;;;;17.33;6.13;;;;;;;11.94;88.39;101917.19;5191822;28;20085;-72
2022/05/21 04:14:27;;;;;;;15.37;4.90;;;;;;;11.94;88.88;101916.31;5203203;28;20021;-69
2022/05/21 04:17:01;;;;;;;15.20;4.97;;;;;;;11.92;88.90;101915.56;5204127;28;20061;-68
2022/05/21 04:19:33;;;;;;;16.08;5.05;;;;;;;11.91;89.15;101922.59;5205035;28;20034;-68
2022/05/21 04:22:05;;;;;;;12.63;4.30;;;;;;;11.92;89.35;101924.28;5202125;28;20060;-70
2022/05/21 04:24:36;;;;;;;19.83;5.07;;;;;;;11.94;88.79;101921.56;5200506;28;20038;-69
2022/05/21 04:27:08;;;;;;;14.60;5.40;;;;;;;11.97;88.91;101927.53;5201552;28;20040;-69
2022/05/21 04:29:39;;;;;;;10.87;4.57;;;;;;;11.94;89.17;101937.31;5207234;28;20037;-69
2022/05/21 04:32:10;;;;;;;14.93;4.83;;;;;;;11.91;89.41;101937.47;5199467;28;20042;-70
2022/05/21 04:34:42;;;;;;;13.23;5.73;;;;;;;11.90;90.10;101930.53;5196570;28;20036;-69
2022/05/21 04:37:13;;;;;;;15.40;6.17;;;;;;;11.92;89.47;101933.94;5201487;28;20101;-69
2022/05/21 04:39:44;;;;;;;19.83;6.20;;;;;;;11.92;89.96;101939.19;5202743;28;20041;-69
2022/05/21 04:42:15;;;;;;;13.00;6.17;;;;;;;12.02;89.63;101935.22;5200632;28;20512;-70
2022/05/21 04:44:47;;;;;;;18.97;7.77;;;;;;;11.98;89.59;101944.16;5201120;28;20037;-69
2022/05/21 04:47:18;;;;;;;17.63;6.23;;;;;;;11.97;89.88;101939.84;5199225;28;20062;-70
2022/05/21 04:49:49;;;;;;;18.20;5.93;;;;;;;11.98;88.97;101949.41;5195487;28;20569;-69
2022/05/21 04:52:21;;;;;;;14.93;7.50;;;;;;;11.96;89.07;101938.09;5203059;28;20061;-69
2022/05/21 04:54:52;;;;;;;16.37;6.93;;;;;;;12.03;88.93;101942.16;5204026;28;20049;-70
2022/05/21 04:57:24;;;;;;;13.43;6.73;;;;;;;12.05;89.10;101942.06;5207883;28;20675;-69
2022/05/21 04:59:55;;;;;;;16.07;8.07;;;;;;;11.95;89.40;101939.03;5208432;28;20034;-69
2022/05/21 05:02:27;;;;;;;15.07;6.97;;;;;;;12.08;89.86;101950.66;5209686;28;20591;-69
2022/05/21 05:04:58;;;;;;;13.13;7.60;;;;;;;12.07;89.58;101954.22;5203463;28;20120;-69
2022/05/21 05:07:30;;;;;;;19.13;7.60;;;;;;;12.15;89.77;101951.22;5208765;28;20176;-69
2022/05/21 05:10:02;;;;;;;19.80;8.17;;;;;;;12.14;89.72;101951.31;5204038;28;20050;-69
2022/05/21 05:12:33;;;;;;;17.90;8.03;;;;;;;12.25;89.58;101950.78;5209669;28;20101;-69
2022/05/21 05:15:05;;;;;;;21.60;8.97;;;;;;;12.22;89.09;101954.41;5207675;28;20070;-69
2022/05/21 05:17:36;;;;;;;16.43;7.83;;;;;;;12.25;89.42;101963.91;5206643;28;20057;-69
2022/05/21 05:20:08;;;;;;;19.17;9.43;;;;;;;12.18;89.09;101958.13;5204859;28;20034;-69
2022/05/21 05:22:39;;;;;;;19.57;9.57;;;;;;;12.24;89.38;101962.19;5204422;28;20062;-69
2022/05/21 05:25:10;;;;;;;21.13;9.80;;;;;;;12.10;89.68;101959.34;5197971;28;20041;-69
2022/05/21 05:27:42;;;;;;;19.63;9.57;;;;;;;12.29;89.02;101968.06;5207600;28;20034;-69
2022/05/21 05:30:14;;;;;;;18.63;8.97;;;;;;;12.36;89.07;101971.28;5191792;28;20435;-70
2022/05/21 05:32:46;;;;;;;18.20;9.00;;;;;;;12.26;89.26;101966.47;5178094;28;20392;-69
2022/05/21 05:35:17;;;;;;;19.83;10.10;;;;;;;12.39;89.03;101979.84;5189931;28;20026;-69
2022/05/21 05:37:49;;;;;;;19.47;9.83;;;;;;;12.38;89.52;101974.66;5203810;28;20500;-70
2022/05/21 05:40:21;;;;;;;25.57;11.23;;;;;;;12.48;88.40;101978.53;5190519;28;20497;-70
2022/05/21 05:42:52;;;;;;;23.13;9.73;;;;;;;12.51;88.15;101978.41;5190517;28;20014;-70
2022/05/21 05:45:23;;;;;;;22.57;10.47;;;;;;;12.40;88.27;101968.41;5192959;28;20095;-70
2022/05/21 05:47:54;;;;;;;24.67;10.23;;;;;;;12.54;88.95;101978.25;5206911;28;20033;-69
2022/05/21 05:50:26;;;;;;;20.10;9.30;;;;;;;12.55;88.28;101985.19;5192945;28;20054;-70
2022/05/21 05:53:05;;;;;;;23.97;10.47;;;;;;;12.62;87.96;101984.91;5201862;28;20014;-70
2022/05/21 05:55:37;;;;;;;16.37;10.00;;;;;;;12.56;88.71;101981.66;5200021;28;20064;-70
2022/05/21 06:00:59;;;;;;;25.30;11.13;;;;;;;12.56;87.75;101986.91;5200662;28;20035;-70
2022/05/21 06:03:30;;;;;;;25.70;13.70;;;;;;;12.64;87.89;101988.28;5199246;28;20038;-69
2022/05/21 06:06:02;;;;;;;23.13;11.57;;;;;;;12.63;87.96;101990.06;5193074;28;20028;-70
2022/05/21 06:08:34;;;;;;;25.30;12.03;;;;;;;12.66;87.94;101991.69;5205962;28;20382;-70
2022/05/21 06:11:05;;;;;;;28.67;14.00;;;;;;;12.69;87.59;101992.38;5194171;28;20027;-69
2022/05/21 06:13:36;;;;;;;25.80;12.57;;;;;;;12.63;88.61;101997.09;5202136;28;20050;-69
2022/05/21 06:16:08;;;;;;;29.67;13.73;;;;;;;12.80;87.75;101990.97;5193738;28;20432;-69
2022/05/21 06:18:39;;;;;;;28.57;12.43;;;;;;;12.92;87.77;101992.97;5206004;28;20482;-70
2022/05/21 06:21:11;;;;;;;27.87;12.90;;;;;;;12.99;87.23;101993.50;5194281;28;20137;-70
2022/05/21 06:23:44;;;;;;;21.40;11.77;;;;;;;13.01;86.09;101996.06;5194863;28;20028;-69
2022/05/21 06:26:15;;;;;;;19.83;10.70;;;;;;;13.03;86.79;101991.56;5201554;28;20035;-70
2022/05/21 06:28:48;;;;;;;22.90;11.37;;;;;;;13.12;86.43;102006.88;5211348;28;20448;-69
2022/05/21 06:31:20;;;;;;;26.30;12.00;;;;;;;13.16;86.31;102002.31;5194182;28;20074;-70
2022/05/21 06:33:51;;;;;;;25.67;11.53;;;;;;;13.22;85.21;101999.34;5187029;28;20116;-69
2022/05/21 06:36:23;;;;;;;20.53;11.07;;;;;;;13.26;85.56;102013.19;5211635;28;20029;-71
2022/05/21 06:38:55;;;;;;;25.07;12.60;;;;;;;13.36;85.12;102014.41;5197774;28;20042;-70
2022/05/21 06:41:29;;;;;;;27.07;12.70;;;;;;;13.35;84.05;102015.34;5195007;28;20604;-70
2022/05/21 06:44:01;;;;;;;23.70;13.82;;;;;;;13.45;84.16;102015.72;5192045;28;20396;-70
2022/05/21 06:46:32;;;;;;;30.17;12.20;;;;;;;13.52;84.06;102017.13;5198924;28;20030;-69
2022/05/21 06:49:03;;;;;;;27.17;12.40;;;;;;;13.60;83.61;102010.56;5210285;28;20030;-70
2022/05/21 06:51:35;;;;;;;28.73;13.10;;;;;;;13.66;83.45;102013.75;5210876;28;20032;-70
2022/05/21 06:54:06;;;;;;;23.70;11.63;;;;;;;13.72;82.53;102012.53;5202398;28;20512;-69
2022/05/21 06:56:40;;;;;;;24.80;12.47;;;;;;;13.72;82.45;102007.28;5202406;28;20541;-69
2022/05/21 06:59:12;;;;;;;;;;;;;;;13.95;82.26;102015.69;5195998;28;20116;-69
2022/05/21 07:01:44;;;;;;;29.30;12.10;;;;;;;13.77;81.81;102018.41;5207196;28;20010;-69
2022/05/21 07:04:15;;;;;;;24.60;12.37;;;;;;;13.85;82.10;102027.66;5210379;28;20520;-69
2022/05/21 07:09:37;;;;;;;24.90;11.93;;;;;;;13.84;82.01;102025.97;5203761;28;20053;-69
2022/05/21 07:12:09;;;;;;;20.53;11.67;;;;;;;13.92;82.38;102031.66;5202197;28;20033;-69
2022/05/21 07:14:40;;;;;;;27.07;13.00;;;;;;;13.99;82.57;102033.03;5197104;28;20031;-69
2022/05/21 07:17:11;;;;;;;24.07;13.60;;;;;;;13.97;80.32;102045.44;5176707;28;20076;-69
2022/05/21 07:19:43;;;;;;;23.83;11.40;;;;;;;13.97;80.12;102040.16;5213695;28;20044;-69
2022/05/21 07:22:16;;;;;;;26.90;11.93;;;;;;;13.92;80.35;102044.84;5205568;28;20038;-69
2022/05/21 07:24:47;;;;;;;24.30;12.27;;;;;;;14.00;80.94;102052.28;5201137;28;20034;-69
2022/05/21 07:27:18;;;;;;;25.60;12.70;;;;;;;14.05;80.18;102052.88;5206414;28;20042;-68
2022/05/21 07:29:49;;;;;;;29.10;12.73;;;;;;;14.11;81.46;102052.56;5192361;28;20630;-69
2022/05/21 07:32:24;;;;;;;29.43;12.70;;;;;;;14.19;80.37;102048.66;5195945;28;20038;-69
2022/05/21 07:35:02;;;;;;;27.00;11.93;;;;;;;14.27;81.53;102046.44;5210793;28;20112;-70
2022/05/21 07:37:33;;;;;;;20.40;12.07;;;;;;;14.29;79.74;102047.22;5201122;28;20073;-72
2022/05/21 07:40:06;;;;;;;22.83;12.93;;;;;;;14.55;79.33;102046.63;5212322;28;20168;-72
2022/05/21 07:42:37;;;;;;;28.60;13.40;;;;;;;14.64;79.11;102051.41;5210165;28;20132;-73
2022/05/21 07:45:12;;;;;;;27.23;12.33;;;;;;;14.72;78.12;102059.69;5212531;28;20057;-72
2022/05/21 07:47:43;;;;;;;27.80;12.30;;;;;;;14.98;77.58;102049.44;5205793;28;20064;-73
2022/05/21 07:50:16;;;;;;;21.83;10.83;;;;;;;15.66;75.88;102058.59;5204712;28;20030;-70
2022/05/21 07:52:47;;;;;;;21.90;11.33;;;;;;;16.21;71.34;102062.19;5193351;28;20029;-71
2022/05/21 07:55:18;;;;;;;26.53;12.13;;;;;;;16.33;70.40;102060.59;5198371;28;20049;-71
2022/05/21 07:57:50;;;;;;;20.03;9.97;;;;;;;16.72;69.31;102037.81;5200806;28;20033;-70
2022/05/21 08:00:21;;;;;;;20.03;9.97;;;;;;;16.92;67.57;102047.91;5207380;28;20034;-70
2022/05/21 08:02:52;;;;;;;17.20;9.37;;;;;;;17.35;66.64;102056.50;5192030;28;20023;-73
2022/05/21 08:05:23;;;;;;;18.17;8.83;;;;;;;17.51;62.70;102055.44;5191024;28;20070;-75
2022/05/21 08:07:56;;;;;;;20.70;8.07;;;;;;;17.23;63.49;102063.50;5191642;28;20070;-71
2022/05/21 08:10:27;;;;;;;21.10;8.63;;;;;;;17.48;63.10;102059.16;5197676;28;20112;-74
2022/05/21 08:12:58;;;;;;;18.13;8.63;;;;;;;17.54;65.16;102057.88;5199971;28;20109;-74
2022/05/21 08:15:30;;;;;;;21.70;8.60;;;;;;;17.71;63.79;102067.28;5199464;28;20540;-74
2022/05/21 08:18:01;;;;;;;15.63;7.40;;;;;;;17.82;62.00;102060.38;5207198;28;20097;-74
2022/05/21 08:20:34;;;;;;;18.47;8.60;;;;;;;18.50;62.01;102071.34;5195729;28;20042;-74
2022/05/21 08:28:51;;;;;;;19.33;8.17;;;;;;;19.31;56.55;102072.41;5191785;28;20034;-78
2022/05/21 08:31:22;;;;;;;17.27;7.47;;;;;;;19.48;56.73;102077.38;5196350;28;20038;-74
2022/05/21 08:33:54;;;;;;;18.37;7.27;;;;;;;19.98;56.10;102076.13;5203322;28;20049;-78
2022/05/21 08:36:25;;;;;;;16.75;8.00;;;;;;;19.93;54.87;102076.50;5194519;28;20030;-77
2022/05/21 08:38:57;;;;;;;13.38;7.93;;;;;;;20.26;53.91;102068.56;5203128;28;20036;-74
2022/05/21 08:41:33;;;;;;;16.02;7.78;;;;;;;20.24;53.51;102076.69;5204524;28;20073;-74
2022/05/21 08:44:07;;;;;;;20.02;8.88;;;;;;;19.75;53.99;102076.16;5198527;28;20030;-74
2022/05/21 08:47:15;;;;;;;27.25;9.18;;;;;;;19.86;55.99;102083.28;5204958;28;20036;-73
2022/05/21 08:49:51;;;;;;;17.50;7.57;;;;;;;19.38;55.76;102080.75;5212004;28;20396;-74
2022/05/21 08:52:32;;;;;;;17.13;7.73;;;;;;;19.68;55.30;102070.47;5205189;28;20031;-75
2022/05/21 08:55:08;;;;;;;16.70;7.87;;;;;;;19.61;55.96;102074.59;5198698;28;20440;-74
2022/05/21 08:57:54;;;;;;;17.03;8.43;;;;;;;19.62;56.74;102070.97;5211631;28;20026;-74
2022/05/21 09:00:33;;;;;;;22.33;8.60;;;;;;;19.23;55.95;102066.88;5202483;28;20117;-74
2022/05/21 09:03:09;;;;;;;16.17;8.10;;;;;;;19.42;56.30;102062.75;5198100;28;20026;-74
2022/05/21 09:05:45;;;;;;;15.90;7.97;;;;;;;20.16;54.25;102079.13;5198188;28;20053;-74
2022/05/21 09:08:31;;;;;;;14.25;7.38;;;;;;;20.42;54.15;102066.31;5200169;28;20054;-74
2022/05/21 09:11:13;;;;;;;19.73;7.65;;;;;;;20.41;53.66;102069.97;5201422;28;20100;-75
2022/05/21 09:13:59;;;;;;;21.13;7.13;;;;;;;20.60;53.32;102067.56;5207691;28;20033;-78
2022/05/21 09:16:55;;;;;;;14.77;7.45;;;;;;;20.79;52.96;102058.88;5195819;28;20029;-76
2022/05/21 09:19:28;;;;;;;19.23;7.55;;;;;;;21.22;51.07;102058.88;5200346;28;20038;-78
2022/05/21 09:22:07;;;;;;;16.10;6.70;;;;;;;21.91;50.82;102056.44;5190070;28;20040;-78
2022/05/21 09:24:48;;;;;;;12.77;6.93;;;;;;;22.12;48.74;102056.34;5196035;28;20476;-76
2022/05/21 09:27:19;;;;;;;15.82;5.97;;;;;;;21.94;46.81;102058.84;5195306;28;20504;-74
2022/05/21 09:29:53;;;;;;;14.38;6.20;;;;;;;21.42;46.84;102051.81;5199815;28;20115;-74
2022/05/21 09:32:33;;;;;;;13.48;5.15;;;;;;;21.35;47.09;102055.97;5209537;28;20044;-77
2022/05/21 09:35:07;;;;;;;17.60;6.45;;;;;;;20.95;47.82;102053.13;5205603;28;20037;-73
2022/05/21 09:37:39;;;;;;;11.88;4.72;;;;;;;20.79;48.24;102042.91;5201759;28;20018;-73
2022/05/21 09:40:34;;;;;;;14.27;5.35;;;;;;;21.44;49.61;102054.31;5204945;28;20057;-73
2022/05/21 09:46:18;;;;;;;15.30;4.93;;;;;;;21.06;47.87;102057.53;5201147;28;19921;-75
2022/05/21 09:48:51;;;;;;;11.23;4.40;;;;;;;20.43;48.98;102064.50;5201124;28;20026;-74
2022/05/21 09:51:31;;;;;;;14.73;5.65;;;;;;;20.41;49.90;102064.66;5203466;28;20551;-77
2022/05/21 09:54:21;;;;;;;15.10;4.82;;;;;;;20.05;52.53;102072.88;5200952;28;20046;-75
2022/05/21 09:56:55;;;;;;;16.30;4.95;;;;;;;19.77;51.95;102076.88;5206106;28;20037;-75
2022/05/21 09:59:29;;;;;;;15.50;4.20;;;;;;;19.92;51.46;102080.09;5200937;28;20053;-75
2022/05/21 10:02:01;;;;;;;;;;;;;;;20.63;50.43;102075.31;5200974;28;20021;-75
2022/05/21 10:04:45;;;;;;;13.07;4.53;;;;;;;21.00;49.44;102069.56;5195334;28;19918;-75
2022/05/21 10:13:45;;;;;;;12.82;4.85;;;;;;;20.92;49.72;102072.00;5198502;28;20109;-74
2022/05/21 10:16:44;;;;;;;12.07;4.45;;;;;;;21.12;48.89;102075.66;5195154;28;20045;-73
2022/05/21 10:19:26;;;;;;;17.13;5.75;;;;;;;21.17;47.68;102077.09;5188972;28;20050;-73
2022/05/21 10:22:38;;;;;;;14.10;5.78;;;;;;;21.32;48.45;102069.56;5180626;28;20145;-74
2022/05/21 10:25:19;;;;;;;11.77;6.28;;;;;;;21.49;48.52;102074.28;5199379;28;20507;-75
2022/05/21 10:28:06;;;;;;;14.82;5.80;;;;;;;21.31;48.57;102068.72;5185432;28;20041;-75
2022/05/21 10:30:44;;;;;;;20.58;9.48;;;;;;;20.85;49.29;102078.81;5197709;28;20125;-75
2022/05/21 10:33:25;;;;;;;16.85;7.82;;;;;;;20.70;49.60;102080.97;5193956;28;20022;-76
2022/05/21 10:36:12;;;;;;;13.85;6.53;;;;;;;20.85;50.39;102071.69;5192032;28;20034;-75
2022/05/21 10:39:02;;;;;;;19.02;7.53;;;;;;;20.89;49.68;102074.94;5190856;28;20034;-76
2022/05/21 10:41:46;;;;;;;17.35;7.57;;;;;;;21.40;48.66;102080.41;5199506;28;20120;-73
2022/05/21 10:44:52;;;;;;;18.53;6.47;;;;;;;21.71;47.69;102074.22;5194201;28;20082;-76
2022/05/21 10:47:48;;;;;;;14.88;5.53;;;;;;;21.94;47.88;102080.19;5183880;28;20121;-74
2022/05/21 10:50:28;;;;;;;18.70;6.28;;;;;;;21.92;47.73;102082.16;5192089;28;20169;-75
2022/05/21 10:53:19;;;;;;;14.63;5.43;;;;;;;21.98;47.97;102076.25;5182508;28;20042;-75
2022/05/21 10:56:17;;;;;;;13.35;5.57;;;;;;;21.86;47.09;102083.53;5192568;28;20026;-75
2022/05/21 10:59:06;;;;;;;15.10;5.55;;;;;;;21.61;47.55;102084.81;5190950;28;20040;-76
2022/05/21 11:01:53;;;;;;;12.50;4.60;;;;;;;22.02;46.79;102083.97;5195136;28;20070;-76
2022/05/21 11:04:43;;;;;;;13.05;4.07;;;;;;;21.97;45.69;102069.25;5190459;28;20029;-73
2022/05/21 11:07:32;;;;;;;9.70;3.95;;;;;;;22.04;47.32;102079.34;5190267;28;20042;-73
2022/05/21 11:10:19;;;;;;;9.68;3.40;;;;;;;22.20;46.93;102084.97;5187372;28;20054;-77
2022/05/21 11:13:05;;;;;;;11.02;3.35;;;;;;;22.44;47.02;102083.75;5191761;28;20042;-76
2022/05/21 11:15:44;;;;;;;11.02;4.22;;;;;;;22.28;44.53;102080.78;5183158;28;20092;-78
2022/05/21 11:18:30;;;;;;;13.30;3.83;;;;;;;21.92;45.82;102095.50;5191031;28;20053;-76
2022/05/21 11:21:09;;;;;;;9.38;4.03;;;;;;;22.37;44.82;102082.63;5194675;28;20092;-76
2022/05/21 11:23:57;;;;;;;13.13;4.35;;;;;;;22.69;44.12;102084.16;5185402;28;20505;-78
2022/05/21 11:26:47;;;;;;;10.60;3.20;;;;;;;22.82;44.69;102081.19;5196539;28;20032;-80
2022/05/21 11:29:33;;;;;;;7.95;2.90;;;;;;;23.07;41.58;102080.72;5194203;28;20926;-77
2022/05/21 11:37:54;;;;;;;7.00;3.03;;;;;;;22.40;42.52;102077.00;5212044;28;20137;-76
2022/05/21 11:47:20;;;;;;;8.25;3.50;;;;;;;22.79;42.90;102068.16;5211862;28;20455;-82
2022/05/21 11:50:13;;;;;;;10.05;3.03;;;;;;;22.60;43.29;102079.66;5211906;28;20025;-77
2022/05/21 11:53:08;;;;;;;14.07;3.03;;;;;;;22.93;41.20;102076.69;5212396;28;20021;-76
2022/05/21 11:55:57;;;;;;;9.50;3.22;;;;;;;22.92;42.46;102064.28;5212229;28;20021;-76
2022/05/21 11:58:59;;;;;;;12.48;2.85;;;;;;;23.01;42.74;102059.91;5196811;28;20417;-76
2022/05/21 12:01:36;;;;;;;10.77;3.00;;;;;;;22.88;41.52;102074.44;5192022;28;20034;-76
2022/05/21 12:04:44;;;;;;;8.35;3.25;;;;;;;22.76;42.60;102056.91;5191386;28;20518;-77
2022/05/21 12:07:41;;;;;;;8.35;3.28;;;;;;;22.98;42.17;102066.41;5190433;28;20056;-75
2022/05/21 12:10:19;;;;;;;11.55;4.07;;;;;;;22.98;41.47;102057.53;5193903;28;20054;-78
2022/05/21 12:13:01;;;;;;;8.02;2.70;;;;;;;22.87;41.30;102066.56;5191507;28;20389;-80
2022/05/21 12:15:43;;;;;;;8.25;4.10;;;;;;;22.90;41.34;102063.63;5190207;28;20049;-77
2022/05/21 12:18:33;;;;;;;6.93;2.28;;;;;;;22.95;41.17;102035.47;5191766;28;20045;-74
2022/05/21 12:21:06;;;;;;;9.45;3.10;;;;;;;22.88;41.38;102071.78;5190820;28;20042;-76
2022/05/21 12:23:40;;;;;;;11.77;3.72;;;;;;;22.76;42.16;102072.94;5191604;28;20023;-75
2022/05/21 12:26:20;;;;;;;16.13;4.03;;;;;;;22.91;42.62;102059.94;5186836;28;20607;-74
2022/05/21 12:29:16;;;;;;;10.57;3.88;;;;;;;22.99;42.52;102069.94;5189948;28;20073;-76
2022/05/21 12:31:51;;;;;;;7.55;2.17;;;;;;;22.91;40.46;102054.63;5190605;28;20033;-76
2022/05/21 12:34:47;;;;;;;6.07;2.50;;;;;;;22.81;41.96;102068.00;5190062;28;20505;-76
2022/05/21 12:37:23;;;;;;;7.82;2.85;;;;;;;23.05;39.48;102066.66;5190810;28;20049;-77
2022/05/21 12:40:01;;;;;;;7.43;2.47;;;;;;;23.07;40.14;102064.69;5190042;28;20382;-78